Time;durP1;ratioP1;P1;durP2;ratioP2;P2;SDS_P1;SDS_P2;PMS_P1;PMS_P2;Temp;Humidity;BMP_temperature;BMP_pressure;BME280_temperature;BME280_humidity;BME280_pressure;Samples;Min_cycle;Max_cycle;Signal;HPM_P1;HPM_P2
2022/02/26 00:00:34;;;;;;;17.67;4.45;;;;;;;1.57;100.00;102152.28;4950983;28;20043;-84
2022/02/26 00:03:01;;;;;;;15.98;3.13;;;;;;;1.49;100.00;102159.63;4948375;28;20142;-88
2022/02/26 00:05:28;;;;;;;18.67;4.35;;;;;;;1.35;100.00;102156.31;4934973;28;20055;-86
2022/02/26 00:07:54;;;;;;;12.93;2.95;;;;;;;1.23;100.00;102148.81;4935254;28;20039;-85
2022/02/26 00:10:21;;;;;;;15.20;3.13;;;;;;;1.17;100.00;102157.91;4932881;28;20058;-84
2022/02/26 00:12:48;;;;;;;13.27;4.00;;;;;;;1.13;100.00;102162.03;4934235;28;20063;-85
2022/02/26 00:15:14;;;;;;;16.60;4.75;;;;;;;1.09;100.00;102165.25;4952437;28;20051;-85
2022/02/26 00:17:41;;;;;;;9.77;2.33;;;;;;;1.10;100.00;102164.44;4947865;28;20422;-84
2022/02/26 00:20:09;;;;;;;13.93;4.32;;;;;;;1.12;100.00;102178.28;4937055;29;20058;-86
2022/02/26 00:22:38;;;;;;;14.45;3.85;;;;;;;1.13;100.00;102172.34;4935382;29;20047;-88
2022/02/26 00:25:06;;;;;;;18.70;3.33;;;;;;;1.16;100.00;102182.81;4929843;29;21014;-85
2022/02/26 00:27:32;;;;;;;14.15;4.03;;;;;;;1.24;100.00;102176.41;4928029;29;20063;-84
2022/02/26 00:29:59;;;;;;;21.25;3.85;;;;;;;1.36;100.00;102171.00;4938505;29;20617;-83
2022/02/26 00:32:26;;;;;;;23.00;5.30;;;;;;;1.42;100.00;102178.16;4950927;28;20446;-87
2022/02/26 00:34:53;;;;;;;14.75;2.97;;;;;;;1.49;100.00;102178.56;4936247;29;20050;-85
2022/02/26 00:37:19;;;;;;;18.15;2.97;;;;;;;1.53;100.00;102177.06;4930662;29;20054;-85
2022/02/26 00:39:46;;;;;;;17.25;3.03;;;;;;;1.56;100.00;102184.06;4913621;28;20106;-84
2022/02/26 00:42:14;;;;;;;11.13;2.92;;;;;;;1.64;100.00;102181.09;4952544;28;20084;-83
2022/02/26 00:44:40;;;;;;;17.45;3.20;;;;;;;1.70;100.00;102187.38;4957827;28;20101;-87
2022/02/26 00:47:08;;;;;;;23.52;4.05;;;;;;;1.74;100.00;102189.31;4938235;28;20047;-85
2022/02/26 00:49:46;;;;;;;14.07;4.20;;;;;;;1.79;100.00;102198.19;4935600;28;20059;-84
2022/02/26 00:52:16;;;;;;;21.00;3.25;;;;;;;1.84;100.00;102188.97;4936581;28;20051;-84
2022/02/26 00:54:43;;;;;;;13.45;2.78;;;;;;;1.87;100.00;102198.59;4937936;28;20082;-85
2022/02/26 00:57:10;;;;;;;29.50;4.63;;;;;;;1.90;100.00;102204.78;4953424;28;20047;-83
2022/02/26 00:59:37;;;;;;;14.65;4.38;;;;;;;1.94;100.00;102198.06;4951408;28;20057;-86
2022/02/26 01:02:06;;;;;;;11.20;3.42;;;;;;;1.97;100.00;102195.66;4942942;28;20055;-84
2022/02/26 01:04:33;;;;;;;12.38;3.40;;;;;;;1.97;100.00;102201.72;4919311;28;20051;-84
2022/02/26 01:07:00;;;;;;;23.75;4.40;;;;;;;2.00;100.00;102216.47;4917199;28;20067;-84
2022/02/26 01:09:27;;;;;;;22.58;4.30;;;;;;;2.03;100.00;102205.41;4916924;28;20058;-85
2022/02/26 01:11:54;;;;;;;20.23;4.88;;;;;;;2.02;100.00;102203.63;4940023;28;20058;-85
2022/02/26 01:14:22;;;;;;;17.20;3.08;;;;;;;2.03;100.00;102192.50;4929524;28;20109;-87
2022/02/26 01:16:49;;;;;;;14.50;3.13;;;;;;;2.05;100.00;102196.94;4924901;28;20051;-87
2022/02/26 01:19:16;;;;;;;15.25;3.03;;;;;;;2.05;100.00;102202.09;4920210;28;20098;-83
2022/02/26 01:21:43;;;;;;;20.77;4.25;;;;;;;2.06;100.00;102202.97;4936977;28;20058;-84
2022/02/26 01:24:13;;;;;;;15.20;2.80;;;;;;;2.06;100.00;102206.47;4933995;28;20057;-84
2022/02/26 01:26:40;;;;;;;20.95;3.63;;;;;;;2.03;100.00;102205.41;4951029;28;20126;-85
2022/02/26 01:29:09;;;;;;;14.50;3.53;;;;;;;2.03;100.00;102208.88;4937819;28;20109;-85
2022/02/26 01:31:38;;;;;;;23.13;4.20;;;;;;;1.98;100.00;102211.22;4938467;28;20050;-85
2022/02/26 01:34:06;;;;;;;17.08;2.97;;;;;;;1.97;100.00;102213.75;4936038;28;20050;-86
2022/02/26 01:36:33;;;;;;;26.65;3.63;;;;;;;1.93;100.00;102220.44;4936060;28;20054;-84
2022/02/26 01:39:00;;;;;;;14.32;3.15;;;;;;;1.93;100.00;102217.84;4932166;28;20055;-83
2022/02/26 01:41:30;;;;;;;14.30;2.90;;;;;;;1.94;100.00;102222.22;4930070;28;20051;-85
2022/02/26 01:43:58;;;;;;;14.80;3.05;;;;;;;1.96;100.00;102223.16;4921222;28;20058;-86
2022/02/26 01:46:25;;;;;;;22.42;5.47;;;;;;;1.98;100.00;102237.06;4958148;28;20054;-85
2022/02/26 01:48:52;;;;;;;15.25;2.90;;;;;;;2.02;100.00;102240.69;4935051;28;20094;-87
2022/02/26 01:51:20;;;;;;;13.15;3.85;;;;;;;2.05;100.00;102248.59;4923766;28;20062;-86
2022/02/26 01:53:47;;;;;;;14.68;3.28;;;;;;;2.10;100.00;102248.81;4938909;28;20078;-85
2022/02/26 01:56:13;;;;;;;13.70;3.70;;;;;;;2.11;100.00;102251.50;4916880;28;20051;-87
2022/02/26 01:58:41;;;;;;;15.43;2.88;;;;;;;2.13;100.00;102249.00;4920065;28;20125;-85
2022/02/26 02:01:07;;;;;;;16.70;3.13;;;;;;;2.13;100.00;102257.63;4919400;28;20047;-86
2022/02/26 02:03:34;;;;;;;20.05;3.08;;;;;;;2.11;100.00;102266.09;4932211;28;20462;-84
2022/02/26 02:06:02;;;;;;;15.05;2.90;;;;;;;2.11;100.00;102254.09;4934152;28;20117;-86
2022/02/26 02:08:29;;;;;;;14.32;3.53;;;;;;;2.11;100.00;102269.59;4933291;28;20051;-86
2022/02/26 02:10:56;;;;;;;18.13;2.90;;;;;;;2.12;100.00;102260.13;4935155;28;20065;-84
2022/02/26 02:13:24;;;;;;;15.38;3.13;;;;;;;2.11;100.00;102260.94;4946986;28;20082;-84
2022/02/26 02:15:54;;;;;;;19.70;3.42;;;;;;;2.09;100.00;102272.91;4950332;28;20786;-86
2022/02/26 02:18:22;;;;;;;29.83;4.63;;;;;;;2.05;100.00;102264.09;4947733;28;20051;-86
2022/02/26 02:20:48;;;;;;;20.30;2.53;;;;;;;2.05;100.00;102260.63;4920697;28;20050;-86
2022/02/26 02:23:15;;;;;;;16.75;2.60;;;;;;;2.05;100.00;102276.13;4944599;28;20051;-85
2022/02/26 02:25:42;;;;;;;15.93;2.63;;;;;;;2.05;100.00;102276.13;4917411;28;20105;-85
2022/02/26 02:28:11;;;;;;;12.73;3.63;;;;;;;2.06;100.00;102275.31;4931991;28;21049;-87
2022/02/26 02:30:39;;;;;;;22.23;3.65;;;;;;;2.06;100.00;102280.47;4931580;28;20055;-85
2022/02/26 02:33:06;;;;;;;20.60;4.18;;;;;;;2.07;100.00;102283.13;4952710;28;20063;-85
2022/02/26 02:35:37;;;;;;;18.73;4.05;;;;;;;2.08;100.00;102292.66;4940166;28;20121;-86
2022/02/26 02:38:09;;;;;;;16.40;3.40;;;;;;;2.08;100.00;102305.56;4915361;28;20141;-86
2022/02/26 02:40:37;;;;;;;19.95;3.75;;;;;;;2.10;100.00;102303.97;4919815;28;20169;-86
2022/02/26 02:43:05;;;;;;;16.10;3.83;;;;;;;2.09;100.00;102291.84;4920818;28;20063;-87
2022/02/26 02:45:34;;;;;;;20.83;3.63;;;;;;;2.05;100.00;102299.38;4939060;28;20069;-84
2022/02/26 02:48:01;;;;;;;20.58;3.08;;;;;;;2.05;100.00;102300.25;4917932;28;20199;-84
2022/02/26 02:50:28;;;;;;;22.08;3.38;;;;;;;2.05;100.00;102300.25;4953410;28;20046;-86
2022/02/26 02:52:55;;;;;;;16.15;4.07;;;;;;;2.05;100.00;102305.44;4937661;28;20043;-84
2022/02/26 02:55:22;;;;;;;17.48;4.07;;;;;;;2.06;100.00;102307.22;4919072;28;20047;-84
2022/02/26 02:57:51;;;;;;;16.83;3.63;;;;;;;2.04;100.00;102311.41;4944063;28;20130;-86
2022/02/26 03:00:19;;;;;;;18.60;3.67;;;;;;;2.07;100.00;102318.41;4908222;28;20046;-84
2022/02/26 03:02:50;;;;;;;17.88;3.85;;;;;;;2.06;100.00;102317.53;4955178;28;20078;-85
2022/02/26 03:05:18;;;;;;;15.40;4.57;;;;;;;2.06;100.00;102317.53;4932898;28;20026;-84
2022/02/26 03:07:45;;;;;;;18.33;3.53;;;;;;;2.06;100.00;102322.72;4947929;28;20043;-86
2022/02/26 03:10:12;;;;;;;13.65;2.88;;;;;;;2.06;100.00;102324.38;4934186;28;20133;-83
2022/02/26 03:12:41;;;;;;;15.18;3.30;;;;;;;2.02;100.00;102322.44;4929730;28;20166;-83
2022/02/26 03:15:09;;;;;;;21.50;3.03;;;;;;;2.03;100.00;102327.69;4938536;28;20098;-84
2022/02/26 03:17:36;;;;;;;19.50;3.92;;;;;;;2.04;100.00;102326.88;4936848;28;20100;-86
2022/02/26 03:20:04;;;;;;;18.58;3.70;;;;;;;2.06;100.00;102326.97;4935313;28;20071;-85
2022/02/26 03:22:30;;;;;;;13.45;2.47;;;;;;;2.06;100.00;102326.97;4937381;28;20665;-84
2022/02/26 03:24:57;;;;;;;21.10;3.00;;;;;;;2.05;100.00;102330.38;4953957;28;20082;-85
2022/02/26 03:27:24;;;;;;;17.92;3.35;;;;;;;2.02;100.00;102343.13;4918064;28;20066;-86
2022/02/26 03:29:50;;;;;;;13.65;2.50;;;;;;;2.00;100.00;102344.75;4956691;28;20240;-87
2022/02/26 03:32:18;;;;;;;19.20;2.45;;;;;;;1.98;100.00;102342.97;4954357;28;20482;-83
2022/02/26 03:34:45;;;;;;;24.90;4.18;;;;;;;1.91;100.00;102347.72;4938276;28;20578;-83
2022/02/26 03:37:12;;;;;;;13.35;4.22;;;;;;;1.85;100.00;102350.84;4948472;28;20287;-85
2022/02/26 03:39:38;;;;;;;21.73;6.07;;;;;;;1.79;100.00;102358.28;4930721;28;20047;-86
2022/02/26 03:42:08;;;;;;;18.05;4.40;;;;;;;1.76;100.00;102360.66;4935963;28;20058;-84
2022/02/26 03:44:36;;;;;;;14.48;3.05;;;;;;;1.73;100.00;102360.50;4940115;28;20058;-86
2022/02/26 03:47:05;;;;;;;24.67;5.70;;;;;;;1.59;100.00;102362.31;4923165;28;20042;-84
2022/02/26 03:49:32;;;;;;;12.45;3.05;;;;;;;1.45;100.00;102367.63;4956043;28;20051;-86
2022/02/26 03:51:59;;;;;;;17.27;5.00;;;;;;;1.32;100.00;102366.03;4923702;28;20046;-84
2022/02/26 03:54:26;;;;;;;24.50;3.38;;;;;;;1.22;100.00;102368.88;4919852;28;20071;-85
2022/02/26 03:56:53;;;;;;;8.95;2.90;;;;;;;1.11;100.00;102378.59;4918363;28;20053;-86
2022/02/26 03:59:20;;;;;;;13.70;3.45;;;;;;;1.01;100.00;102378.00;4954896;28;20042;-84
2022/02/26 04:01:46;;;;;;;14.88;3.17;;;;;;;0.92;100.00;102384.38;4954566;28;20082;-85
2022/02/26 04:04:13;;;;;;;14.77;4.63;;;;;;;0.82;100.00;102390.69;4938681;28;20070;-85
2022/02/26 04:06:40;;;;;;;11.60;3.25;;;;;;;0.78;100.00;102398.13;4955844;28;20079;-86
2022/02/26 04:09:06;;;;;;;17.27;3.30;;;;;;;0.73;100.00;102392.72;4918759;28;20150;-86
2022/02/26 04:11:33;;;;;;;18.70;4.60;;;;;;;0.68;100.00;102401.88;4939081;28;20625;-86
2022/02/26 04:14:00;;;;;;;13.27;3.40;;;;;;;0.63;100.00;102403.28;4937172;28;20053;-84
2022/02/26 04:16:27;;;;;;;21.48;5.10;;;;;;;0.60;100.00;102406.56;4937627;28;20063;-85
2022/02/26 04:18:54;;;;;;;24.67;4.80;;;;;;;0.61;100.00;102410.94;4937614;28;20114;-86
2022/02/26 04:21:21;;;;;;;19.25;3.95;;;;;;;0.69;100.00;102415.63;4934801;28;20133;-86
2022/02/26 04:23:47;;;;;;;24.10;3.75;;;;;;;0.74;100.00;102417.69;4953310;28;20055;-84
2022/02/26 04:26:14;;;;;;;17.05;3.38;;;;;;;0.80;100.00;102417.19;4936743;28;20055;-86
2022/02/26 04:28:41;;;;;;;20.52;4.75;;;;;;;0.88;100.00;102420.22;4932179;28;20047;-85
2022/02/26 04:31:07;;;;;;;22.30;5.80;;;;;;;0.98;100.00;102423.41;4921471;28;20047;-83
2022/02/26 04:33:34;;;;;;;14.00;4.97;;;;;;;1.08;100.00;102417.13;4936266;28;20047;-84
2022/02/26 04:36:00;;;;;;;20.63;3.35;;;;;;;1.20;100.00;102418.63;4946466;28;20051;-84
2022/02/26 04:38:29;;;;;;;11.77;3.50;;;;;;;1.26;100.00;102430.16;4929187;28;20145;-85
2022/02/26 04:41:00;;;;;;;9.23;3.03;;;;;;;1.33;100.00;102428.88;4938326;28;20050;-85
2022/02/26 04:43:27;;;;;;;17.42;3.50;;;;;;;1.40;100.00;102433.56;4920982;28;20054;-84
2022/02/26 04:45:53;;;;;;;12.93;2.97;;;;;;;1.47;100.00;102433.13;4939444;28;20101;-87
2022/02/26 04:48:20;;;;;;;23.85;4.22;;;;;;;1.54;100.00;102431.78;4916864;28;20520;-83
2022/02/26 04:50:48;;;;;;;17.85;2.70;;;;;;;1.60;100.00;102432.13;4918606;28;20051;-84
2022/02/26 04:53:15;;;;;;;14.00;3.60;;;;;;;1.63;100.00;102440.03;4951734;28;20057;-85
2022/02/26 04:55:42;;;;;;;20.67;4.85;;;;;;;1.67;100.00;102443.69;4932116;28;20050;-86
2022/02/26 04:58:11;;;;;;;13.43;2.97;;;;;;;1.68;100.00;102436.81;4932251;28;20328;-86
2022/02/26 05:00:38;;;;;;;13.82;3.20;;;;;;;1.71;100.00;102449.88;4923766;28;20124;-86
2022/02/26 05:03:04;;;;;;;22.85;3.63;;;;;;;1.75;100.00;102441.53;4915377;28;20051;-85
2022/02/26 05:05:31;;;;;;;14.18;4.50;;;;;;;1.74;100.00;102448.38;4952177;28;20126;-87
2022/02/26 05:07:58;;;;;;;14.30;3.45;;;;;;;1.67;100.00;102448.84;4934236;28;20584;-86
2022/02/26 05:10:25;;;;;;;15.00;3.00;;;;;;;1.56;100.00;102448.22;4931904;28;20314;-85
2022/02/26 05:12:51;;;;;;;17.42;3.53;;;;;;;1.56;100.00;102458.53;4932109;28;20088;-86
2022/02/26 05:15:19;;;;;;;18.65;4.45;;;;;;;1.56;100.00;102463.72;4936223;28;20125;-83
2022/02/26 05:17:46;;;;;;;12.88;2.75;;;;;;;1.54;100.00;102461.84;4932489;28;20159;-82
2022/02/26 05:20:14;;;;;;;18.85;4.25;;;;;;;1.48;100.00;102460.69;4929556;28;20413;-84
2022/02/26 05:22:42;;;;;;;23.73;3.67;;;;;;;1.43;100.00;102463.81;4921026;28;20053;-85
2022/02/26 05:25:13;;;;;;;12.45;2.60;;;;;;;1.41;100.00;102470.56;4934512;28;20055;-87
2022/02/26 05:27:40;;;;;;;9.90;2.97;;;;;;;1.37;100.00;102473.78;4938511;28;20042;-84
2022/02/26 05:30:11;;;;;;;18.75;5.80;;;;;;;1.33;100.00;102475.31;4937402;28;20043;-84
2022/02/26 05:32:38;;;;;;;8.02;2.63;;;;;;;1.31;100.00;102484.63;4938199;28;20054;-85
2022/02/26 05:35:06;;;;;;;17.70;3.22;;;;;;;1.25;100.00;102485.19;4935548;28;20082;-87
2022/02/26 05:37:33;;;;;;;14.88;3.60;;;;;;;1.17;100.00;102490.69;4934641;28;20039;-83
2022/02/26 05:40:00;;;;;;;19.10;5.38;;;;;;;1.07;100.00;102491.81;4935441;28;20106;-84
2022/02/26 05:42:26;;;;;;;10.50;3.42;;;;;;;0.92;100.00;102502.09;4949626;28;20061;-85
2022/02/26 05:44:53;;;;;;;14.88;3.15;;;;;;;0.80;100.00;102497.09;4922957;28;20058;-84
2022/02/26 05:47:21;;;;;;;16.73;3.05;;;;;;;0.69;100.00;102508.44;4920088;28;20055;-85
2022/02/26 05:49:48;;;;;;;17.55;3.05;;;;;;;0.60;100.00;102516.47;4935473;28;20050;-86
2022/02/26 05:52:15;;;;;;;19.77;3.10;;;;;;;0.53;100.00;102517.78;4948275;28;20098;-84
2022/02/26 05:54:41;;;;;;;25.02;3.67;;;;;;;0.46;100.00;102518.22;4904495;28;20055;-83
2022/02/26 05:57:08;;;;;;;17.45;3.97;;;;;;;0.40;100.00;102526.44;4931650;28;20043;-86
2022/02/26 05:59:35;;;;;;;18.70;4.70;;;;;;;0.34;100.00;102526.06;4935528;28;20057;-84
2022/02/26 06:02:02;;;;;;;22.30;3.70;;;;;;;0.28;100.00;102528.25;4916188;28;20304;-83
2022/02/26 06:04:28;;;;;;;15.57;3.53;;;;;;;0.24;100.00;102534.88;4933419;28;20054;-84
2022/02/26 06:06:55;;;;;;;13.15;3.50;;;;;;;0.20;100.00;102537.19;4927837;28;20081;-84
2022/02/26 06:09:21;;;;;;;13.25;3.30;;;;;;;0.18;100.00;102534.50;4934385;28;20051;-86
2022/02/26 06:11:48;;;;;;;12.57;3.83;;;;;;;0.17;100.00;102535.31;4919518;28;20055;-85
2022/02/26 06:14:14;;;;;;;15.15;3.13;;;;;;;0.13;100.00;102541.03;4947162;28;20043;-85
2022/02/26 06:16:41;;;;;;;18.88;4.65;;;;;;;0.11;100.00;102533.22;4935537;28;20047;-86
2022/02/26 06:19:08;;;;;;;12.48;4.18;;;;;;;0.12;100.00;102545.31;4937632;28;20114;-84
2022/02/26 06:21:34;;;;;;;24.13;5.80;;;;;;;0.11;100.00;102558.09;4936991;28;20063;-85
2022/02/26 06:24:01;;;;;;;23.42;3.88;;;;;;;0.08;100.00;102553.63;4933490;28;20043;-85
2022/02/26 06:26:27;;;;;;;9.45;2.53;;;;;;;0.08;100.00;102557.88;4919460;28;20078;-84
2022/02/26 06:28:55;;;;;;;14.27;4.22;;;;;;;0.08;100.00;102561.34;4955650;28;20070;-85
2022/02/26 06:31:22;;;;;;;14.75;3.22;;;;;;;0.08;100.00;102560.44;4924578;28;20082;-86
2022/02/26 06:33:52;;;;;;;8.50;3.03;;;;;;;0.07;100.00;102566.41;4933382;28;20050;-85
2022/02/26 06:36:18;;;;;;;23.63;5.32;;;;;;;0.05;100.00;102567.97;4931244;28;20053;-86
2022/02/26 06:38:45;;;;;;;14.07;2.92;;;;;;;0.01;100.00;102560.84;4933670;28;20542;-85
2022/02/26 06:41:12;;;;;;;14.13;3.85;;;;;;;0.01;100.00;102568.59;4933183;28;20138;-87
2022/02/26 06:43:39;;;;;;;24.08;5.55;;;;;;;0.01;100.00;102578.88;4933116;28;20059;-85
2022/02/26 06:46:08;;;;;;;25.17;3.47;;;;;;;0.01;100.00;102578.88;4940982;28;20050;-85
2022/02/26 06:48:36;;;;;;;15.65;3.80;;;;;;;0.00;100.00;102590.88;4933103;28;20073;-84
2022/02/26 06:51:02;;;;;;;11.32;3.45;;;;;;;-0.02;100.00;102593.31;4933454;28;20446;-86
2022/02/26 06:53:29;;;;;;;18.02;3.33;;;;;;;0.01;100.00;102589.19;4934550;28;20379;-84
2022/02/26 06:55:55;;;;;;;13.93;3.45;;;;;;;0.05;100.00;102604.03;4946795;28;20039;-88
2022/02/26 06:58:22;;;;;;;17.08;4.13;;;;;;;0.09;100.00;102611.16;4932546;28;20097;-87
2022/02/26 07:00:49;;;;;;;19.42;3.00;;;;;;;0.16;100.00;102623.66;4920776;28;20054;-85
2022/02/26 07:03:15;;;;;;;11.70;3.38;;;;;;;0.23;100.00;102630.09;4933853;28;20135;-86
2022/02/26 07:05:42;;;;;;;19.10;4.25;;;;;;;0.31;100.00;102621.19;4918712;28;20142;-86
2022/02/26 07:08:11;;;;;;;17.38;3.92;;;;;;;0.37;100.00;102625.84;4915900;28;20042;-86
2022/02/26 07:10:38;;;;;;;15.88;5.07;;;;;;;0.42;100.00;102629.63;4951412;28;20062;-86
2022/02/26 07:13:05;;;;;;;15.23;5.57;;;;;;;0.46;100.00;102634.19;4933380;28;20060;-86
2022/02/26 07:15:34;;;;;;;17.50;4.13;;;;;;;0.54;100.00;102635.53;4947953;28;20039;-86
2022/02/26 07:18:01;;;;;;;17.35;3.60;;;;;;;0.60;100.00;102632.47;4919582;28;20079;-86
2022/02/26 07:20:28;;;;;;;19.77;4.05;;;;;;;0.69;100.00;102645.06;4917186;28;20482;-85
2022/02/26 07:22:54;;;;;;;12.77;3.45;;;;;;;0.75;100.00;102643.75;4930537;28;20054;-86
2022/02/26 07:25:21;;;;;;;21.70;4.30;;;;;;;0.94;100.00;102650.06;4935989;28;20066;-86
2022/02/26 07:27:48;;;;;;;14.75;4.32;;;;;;;1.16;100.00;102649.69;4953518;28;20094;-85
2022/02/26 07:30:14;;;;;;;12.63;3.28;;;;;;;1.42;100.00;102655.56;4932635;28;20102;-86
2022/02/26 07:32:41;;;;;;;15.48;2.85;;;;;;;1.85;100.00;102658.16;4937695;28;20043;-85
2022/02/26 07:35:08;;;;;;;9.25;3.67;;;;;;;2.33;100.00;102657.44;4947130;28;20059;-87
2022/02/26 07:37:35;;;;;;;15.00;4.70;;;;;;;2.62;100.00;102652.25;4930888;28;20054;-88
2022/02/26 07:40:02;;;;;;;20.08;4.55;;;;;;;2.68;100.00;102658.56;4934411;28;20102;-86
2022/02/26 07:42:29;;;;;;;11.02;3.03;;;;;;;2.88;100.00;102670.00;4913298;28;20065;-84
2022/02/26 07:44:59;;;;;;;9.38;3.15;;;;;;;3.13;100.00;102672.25;4917737;28;20058;-87
2022/02/26 07:47:27;;;;;;;12.25;4.07;;;;;;;3.12;100.00;102675.63;4920195;28;20054;-84
2022/02/26 07:49:54;;;;;;;20.48;4.15;;;;;;;3.04;100.00;102684.66;4930720;28;20076;-85
2022/02/26 07:52:31;;;;;;;15.85;3.17;;;;;;;2.96;100.00;102692.91;4929081;28;20153;-87
2022/02/26 07:55:08;;;;;;;16.13;3.45;;;;;;;2.86;100.00;102688.03;4933256;28;21460;-86
2022/02/26 07:57:35;;;;;;;24.17;2.88;;;;;;;2.79;100.00;102698.81;4943372;28;20118;-85
2022/02/26 08:00:02;;;;;;;18.55;3.58;;;;;;;2.83;100.00;102702.47;4946676;28;20102;-86
2022/02/26 08:02:28;;;;;;;21.45;6.00;;;;;;;2.86;100.00;102700.97;4947569;28;20503;-88
2022/02/26 08:04:55;;;;;;;23.02;3.30;;;;;;;2.97;100.00;102717.06;4930890;28;20048;-86
2022/02/26 08:07:22;;;;;;;17.73;3.05;;;;;;;3.10;100.00;102714.38;4931218;28;20576;-88
2022/02/26 08:09:49;;;;;;;14.52;2.83;;;;;;;3.23;100.00;102717.63;4951198;28;20059;-87
2022/02/26 08:12:15;;;;;;;13.40;4.25;;;;;;;3.31;100.00;102716.31;4928673;28;20051;-87
2022/02/26 08:14:42;;;;;;;10.00;2.88;;;;;;;3.48;100.00;102714.63;4932669;28;20051;-87
2022/02/26 08:17:10;;;;;;;13.38;4.88;;;;;;;3.57;99.04;102720.34;4940267;28;20446;-87
2022/02/26 08:19:38;;;;;;;16.52;3.05;;;;;;;3.54;98.17;102722.75;4949863;28;20050;-88
2022/02/26 08:22:06;;;;;;;16.00;5.20;;;;;;;3.53;99.12;102720.97;4949691;28;20051;-86
2022/02/26 08:24:34;;;;;;;16.08;3.63;;;;;;;3.60;99.66;102729.97;4933110;28;20038;-84
2022/02/26 08:27:01;;;;;;;29.02;5.38;;;;;;;3.75;98.93;102728.16;4915717;28;20382;-87
2022/02/26 08:29:27;;;;;;;16.75;6.07;;;;;;;3.89;97.53;102730.59;4934929;28;20812;-85
2022/02/26 08:31:55;;;;;;;15.35;4.97;;;;;;;3.98;97.09;102734.56;4933759;28;20156;-84
2022/02/26 08:34:22;;;;;;;20.42;5.07;;;;;;;4.07;96.94;102738.44;4931995;28;20059;-85
2022/02/26 08:36:50;;;;;;;24.83;5.75;;;;;;;4.16;96.43;102746.69;4918878;28;20051;-84
2022/02/26 08:39:17;;;;;;;11.07;4.50;;;;;;;4.26;96.73;102742.84;4929946;28;20052;-87
2022/02/26 08:41:44;;;;;;;21.63;4.20;;;;;;;4.40;96.27;102747.03;4951820;28;20053;-87
2022/02/26 08:44:11;;;;;;;13.88;5.40;;;;;;;4.56;95.58;102748.72;4930464;28;20059;-84
2022/02/26 08:46:37;;;;;;;18.75;6.22;;;;;;;4.72;94.34;102754.63;4910500;29;20078;-88
2022/02/26 08:49:04;;;;;;;9.60;5.18;;;;;;;4.85;93.96;102757.03;4914376;29;20047;-84
2022/02/26 08:51:31;;;;;;;10.25;4.10;;;;;;;4.93;92.86;102757.41;4914575;29;20139;-84
2022/02/26 08:53:57;;;;;;;19.27;6.32;;;;;;;4.99;91.54;102751.59;4926608;28;20059;-85
2022/02/26 08:56:24;;;;;;;16.48;5.70;;;;;;;4.93;91.30;102757.41;4911379;29;20051;-86
2022/02/26 08:58:55;;;;;;;24.52;4.32;;;;;;;4.88;92.22;102757.16;4931716;29;20047;-86
2022/02/26 09:01:22;;;;;;;17.88;3.92;;;;;;;4.84;92.21;102757.84;4943407;28;20051;-85
2022/02/26 09:03:51;;;;;;;19.20;5.43;;;;;;;4.90;93.60;102760.72;4947849;28;20055;-88
2022/02/26 09:06:23;;;;;;;12.05;5.53;;;;;;;5.06;93.04;102775.34;4915776;29;20059;-87
2022/02/26 09:08:51;;;;;;;23.83;7.60;;;;;;;5.20;92.69;102772.50;4932688;29;20055;-85
2022/02/26 09:11:26;;;;;;;15.82;4.18;;;;;;;5.29;91.91;102776.44;4932197;28;20047;-84
2022/02/26 09:13:52;;;;;;;25.70;7.22;;;;;;;5.29;90.01;102770.31;4917297;29;20052;-87
2022/02/26 09:16:22;;;;;;;15.82;4.65;;;;;;;5.33;91.12;102773.97;4931117;29;20146;-85
2022/02/26 09:18:49;;;;;;;25.15;5.03;;;;;;;5.50;89.44;102778.25;4937471;29;20047;-82
2022/02/26 09:21:15;;;;;;;12.52;4.05;;;;;;;5.65;88.49;102771.97;4946877;28;20560;-82
2022/02/26 09:23:42;;;;;;;18.42;6.22;;;;;;;5.73;88.14;102786.19;4916561;29;20052;-88
2022/02/26 09:26:10;;;;;;;20.75;5.45;;;;;;;5.79;87.79;102778.69;4932182;28;20051;-85
2022/02/26 09:28:40;;;;;;;16.77;3.80;;;;;;;5.91;87.50;102783.53;4918122;29;20066;-87
2022/02/26 09:31:30;;;;;;;23.85;5.15;;;;;;;6.00;86.89;102793.47;4922813;29;20566;-86
2022/02/26 09:33:56;;;;;;;19.75;5.00;;;;;;;5.99;86.71;102789.13;4935665;28;20557;-85
2022/02/26 09:40:04;;;;;;;14.40;5.53;;;;;;;6.17;85.59;102789.03;4902263;29;20056;-87
2022/02/26 09:42:31;;;;;;;15.48;5.57;;;;;;;6.22;85.10;102800.50;4910383;29;20054;-88
2022/02/26 09:45:03;;;;;;;16.30;4.38;;;;;;;6.27;84.19;102794.69;4923772;29;20066;-86
2022/02/26 09:47:47;;;;;;;22.48;5.05;;;;;;;6.31;83.96;102797.41;4922135;29;20056;-84
2022/02/26 09:50:14;;;;;;;19.02;4.53;;;;;;;6.40;83.94;102800.41;4902723;29;20119;-85
2022/02/26 09:52:44;;;;;;;14.93;4.05;;;;;;;6.38;83.24;102808.16;4936997;28;20062;-85
2022/02/26 09:55:11;;;;;;;15.73;3.42;;;;;;;6.36;82.79;102807.22;4932699;28;20051;-85
2022/02/26 09:57:42;;;;;;;13.15;3.55;;;;;;;6.33;81.18;102808.81;4932500;29;20074;-86
2022/02/26 10:00:10;;;;;;;16.05;3.75;;;;;;;6.14;80.87;102818.41;4934409;29;20150;-88
2022/02/26 10:02:43;;;;;;;16.88;3.70;;;;;;;6.15;82.65;102814.09;4931811;28;20051;-86
2022/02/26 10:05:12;;;;;;;12.75;3.90;;;;;;;6.21;81.77;102812.63;4949106;28;20067;-87
2022/02/26 10:07:41;;;;;;;20.15;3.72;;;;;;;6.22;81.76;102817.03;4950987;28;20117;-88
2022/02/26 10:10:20;;;;;;;19.33;4.18;;;;;;;6.22;80.77;102823.91;4914114;29;20146;-86
2022/02/26 10:13:06;;;;;;;20.33;3.78;;;;;;;6.19;80.62;102821.19;4918150;29;20062;-88
2022/02/26 10:15:36;;;;;;;25.67;5.22;;;;;;;6.23;80.87;102813.59;4938187;29;20054;-87
2022/02/26 10:18:13;;;;;;;15.48;4.15;;;;;;;6.43;80.59;102822.25;4929123;28;20055;-87
2022/02/26 10:20:54;;;;;;;20.85;4.45;;;;;;;6.57;79.95;102820.25;4945570;28;20044;-87
2022/02/26 10:23:22;;;;;;;14.55;4.88;;;;;;;6.49;77.68;102821.63;4906161;29;20070;-88
2022/02/26 10:25:52;;;;;;;17.88;3.47;;;;;;;6.24;78.32;102817.97;4927273;29;20044;-85
2022/02/26 10:28:19;;;;;;;13.68;4.60;;;;;;;6.18;79.74;102822.00;4932068;29;20142;-87
2022/02/26 10:30:46;;;;;;;11.20;3.50;;;;;;;6.17;80.07;102825.44;4932887;28;20060;-85
2022/02/26 10:33:23;;;;;;;16.08;3.97;;;;;;;6.13;79.79;102827.91;4948095;28;20086;-87
2022/02/26 10:36:05;;;;;;;17.55;3.38;;;;;;;6.05;79.27;102820.56;4949755;28;20047;-85
2022/02/26 10:38:35;;;;;;;23.58;5.07;;;;;;;5.95;78.79;102821.84;4927950;28;20047;-85
2022/02/26 10:41:07;;;;;;;15.57;3.67;;;;;;;5.99;79.54;102820.31;4933245;28;20126;-86
2022/02/26 10:43:39;;;;;;;12.18;3.30;;;;;;;6.20;78.67;102831.66;4954315;28;20057;-85
2022/02/26 10:46:32;;;;;;;15.88;3.55;;;;;;;6.42;77.64;102830.00;4938864;28;20146;-86
2022/02/26 10:49:06;;;;;;;16.40;3.10;;;;;;;6.48;77.80;102830.28;4933171;28;20117;-87
2022/02/26 10:51:37;;;;;;;19.65;2.90;;;;;;;6.42;77.16;102830.88;4931284;28;20135;-84
2022/02/26 10:54:10;;;;;;;13.65;3.83;;;;;;;6.37;77.28;102824.59;4951521;28;20494;-88
2022/02/26 10:56:43;;;;;;;11.43;3.33;;;;;;;6.30;77.33;102819.97;4923563;28;20055;-86
2022/02/26 10:59:16;;;;;;;14.45;3.80;;;;;;;6.26;76.50;102824.13;4953840;28;20047;-86
2022/02/26 11:02:00;;;;;;;14.00;2.92;;;;;;;6.21;75.07;102827.34;4959944;28;20055;-87
2022/02/26 11:04:28;;;;;;;10.07;3.50;;;;;;;6.16;75.50;102829.75;4957629;28;20130;-87
2022/02/26 11:06:56;;;;;;;9.43;2.58;;;;;;;6.13;76.34;102833.09;4944639;28;20062;-87
2022/02/26 11:09:24;;;;;;;18.90;3.90;;;;;;;6.13;77.26;102829.63;4938389;28;20134;-86
2022/02/26 11:11:51;;;;;;;20.40;4.22;;;;;;;6.18;77.53;102829.81;4922958;28;20055;-86
2022/02/26 11:14:22;;;;;;;10.57;3.65;;;;;;;6.28;76.79;102839.78;4935071;28;20055;-86
2022/02/26 11:16:53;;;;;;;8.80;2.42;;;;;;;6.39;74.64;102833.34;4843755;28;20509;-87
2022/02/26 11:19:21;;;;;;;8.05;2.47;;;;;;;6.43;74.48;102835.25;4947856;28;20044;-84
2022/02/26 11:21:49;;;;;;;10.80;2.42;;;;;;;6.52;74.56;102832.19;4937893;28;20055;-85
2022/02/26 11:24:20;;;;;;;15.48;3.03;;;;;;;6.69;74.67;102838.09;4938836;28;20067;-86
2022/02/26 11:26:48;;;;;;;14.93;3.38;;;;;;;6.88;74.55;102837.16;4950108;28;20059;-88